< < Back
Terminal Aerodrome Forecast


Current Version              Previous Versions:   1  2  3  4  5  6  7  8  9  

Terminal Aerodrome Forecast

316
FTUS42 KILM 261100
TAFILM
TAF
KILM 261120Z 2612/2712 02011KT P6SM -RA BKN005 BKN025
     FM261300 35013G17KT P6SM BKN004
     FM261700 36012KT 6SM BR SCT004 OVC012
     FM262300 36006KT P6SM BKN015=



Latest METAR

645
SAUS70 KWBC 270000 RRC
MTRILM
METAR KILM 262353Z 36008KT 10SM OVC018 03/00 A3004 RMK AO2 SLP173
T00330000 10044 20033 51042


USA.gov is the U.S. government's official web portal to all federal, state and local government web resources and services.